createdAt,value
2019-01-16T00:01:17.110Z,99877.47
2019-01-16T00:03:30.486Z,99876.63
2019-01-16T00:05:43.838Z,99885.49
2019-01-16T00:07:56.857Z,99872.86
2019-01-16T00:10:00.026Z,99874.53
2019-01-16T00:12:13.542Z,99882.48
2019-01-16T00:14:26.839Z,99882.19
2019-01-16T00:16:40.132Z,99876.16
2019-01-16T00:18:53.410Z,99874.94
2019-01-16T00:20:56.525Z,99882.84
2019-01-16T00:23:09.793Z,99881.42
2019-01-16T00:27:43.500Z,99879.91
2019-01-16T00:29:56.799Z,99881.19
2019-01-16T00:32:09.837Z,99872.67
2019-01-16T00:34:13.033Z,99877.66
2019-01-16T00:36:11.014Z,99876.48
2019-01-16T00:38:24.133Z,99883.41
2019-01-16T00:40:37.584Z,99886.55
2019-01-16T00:42:50.868Z,99883.77
2019-01-16T00:45:03.913Z,99884.20
2019-01-16T00:47:16.954Z,99883.25
2019-01-16T00:49:20.403Z,99888.28
2019-01-16T00:51:33.724Z,99875.44
2019-01-16T00:53:37.147Z,99888.42
2019-01-16T00:55:50.240Z,99890.06
2019-01-16T00:58:03.348Z,99894.03
2019-01-16T01:00:16.479Z,99888.35
2019-01-16T01:02:29.816Z,99889.03
2019-01-16T01:04:32.333Z,99882.24
2019-01-16T01:06:45.373Z,99883.83
2019-01-16T01:08:58.736Z,99877.23
2019-01-16T01:11:01.406Z,99876.22
2019-01-16T01:13:14.479Z,99891.68
2019-01-16T01:15:28.054Z,99886.59
2019-01-16T01:17:41.186Z,99890.27
2019-01-16T01:19:54.287Z,99891.57
2019-01-16T01:22:07.318Z,99902.33
2019-01-16T01:24:20.631Z,99901.37
2019-01-16T01:26:33.912Z,99891.10
2019-01-16T01:28:47.211Z,99899.56
2019-01-16T01:30:51.883Z,99902.52
2019-01-16T01:33:05.163Z,99905.27
2019-01-16T01:35:11.469Z,99903.53
2019-01-16T01:37:17.029Z,99902.91
2019-01-16T01:39:24.811Z,99903.79
2019-01-16T01:41:38.091Z,99896.38
2019-01-16T01:43:51.147Z,99897.59
2019-01-16T01:46:04.170Z,99892.16
2019-01-16T01:48:17.227Z,99901.99
2019-01-16T01:50:30.586Z,99899.08
2019-01-16T01:52:43.868Z,99895.77
2019-01-16T01:54:47.768Z,99895.37
2019-01-16T01:57:00.802Z,99893.62
2019-01-16T01:59:13.835Z,99899.30
2019-01-16T02:01:27.113Z,99892.72
2019-01-16T02:03:40.139Z,99902.39
2019-01-16T02:05:53.513Z,99905.98
2019-01-16T02:08:06.545Z,99902.22
2019-01-16T02:10:19.800Z,99902.00
2019-01-16T02:12:32.832Z,99908.90
2019-01-16T02:14:46.127Z,99902.40
2019-01-16T02:16:49.208Z,99898.57
2019-01-16T02:19:02.251Z,99911.13
2019-01-16T02:21:07.936Z,99909.64
2019-01-16T02:23:12.905Z,99900.76
2019-01-16T02:25:26.221Z,99918.83
2019-01-16T02:27:39.527Z,99918.44
2019-01-16T02:29:52.561Z,99919.53
2019-01-16T02:32:05.932Z,99918.18
2019-01-16T02:34:19.225Z,99906.78
2019-01-16T02:36:19.606Z,99914.44
2019-01-16T02:38:32.873Z,99916.52
2019-01-16T02:40:36.686Z,99908.67
2019-01-16T02:42:49.727Z,99910.69
2019-01-16T02:45:02.764Z,99912.34
2019-01-16T02:47:15.814Z,99911.33
2019-01-16T02:49:21.390Z,99904.16
2019-01-16T02:51:34.638Z,99908.09
2019-01-16T02:53:48.205Z,99910.53
2019-01-16T02:56:01.325Z,99917.73
2019-01-16T02:58:05.094Z,99908.10
2019-01-16T03:00:18.193Z,99902.83
2019-01-16T03:02:31.219Z,99913.19
2019-01-16T03:04:44.254Z,99900.23
2019-01-16T03:06:57.268Z,99921.66
2019-01-16T03:09:10.586Z,99921.86
2019-01-16T03:11:23.788Z,99916.94
2019-01-16T03:13:37.309Z,99912.81
2019-01-16T03:15:50.329Z,99913.03
2019-01-16T03:18:03.372Z,99926.49
2019-01-16T03:20:16.676Z,99930.76
2019-01-16T03:22:22.792Z,99931.22
2019-01-16T03:24:27.364Z,99930.98
2019-01-16T03:26:41.093Z,99924.78
2019-01-16T03:28:54.373Z,99936.12
2019-01-16T03:31:07.686Z,99937.54
2019-01-16T03:33:20.696Z,99935.83
2019-01-16T03:35:33.757Z,99940.05
2019-01-16T03:37:35.538Z,99946.66
2019-01-16T03:39:48.812Z,99940.34
2019-01-16T03:42:01.840Z,99942.10
2019-01-16T03:44:15.226Z,99936.81
2019-01-16T03:46:28.550Z,99933.37
2019-01-16T03:48:41.572Z,99939.31
2019-01-16T03:50:55.094Z,99940.05
2019-01-16T03:53:08.212Z,99941.55
2019-01-16T03:55:21.507Z,99941.34
2019-01-16T03:57:34.528Z,99942.39
2019-01-16T03:59:47.814Z,99941.92
2019-01-16T04:02:00.878Z,99937.77
2019-01-16T04:04:19.543Z,99939.15
2019-01-16T04:06:32.971Z,99940.87
2019-01-16T04:08:46.261Z,99933.69
2019-01-16T04:10:59.558Z,99936.27
2019-01-16T04:13:12.603Z,99933.20
2019-01-16T04:15:26.111Z,99945.48
2019-01-16T04:17:39.142Z,99943.71
2019-01-16T04:19:52.461Z,99954.61
2019-01-16T04:22:05.480Z,99952.63
2019-01-16T04:24:18.511Z,99956.03
2019-01-16T04:26:32.102Z,99958.30
2019-01-16T04:28:45.403Z,99951.59
2019-01-16T04:30:58.691Z,99951.19
2019-01-16T04:33:11.962Z,99954.38
2019-01-16T04:35:25.161Z,99951.06
2019-01-16T04:37:34.116Z,99961.81
2019-01-16T04:39:47.430Z,99954.30
2019-01-16T04:42:00.796Z,99955.41
2019-01-16T04:44:14.076Z,99962.65
2019-01-16T04:46:27.135Z,99955.89
2019-01-16T04:48:40.411Z,99959.37
2019-01-16T04:50:53.436Z,99957.52
2019-01-16T04:53:06.806Z,99957.07
2019-01-16T04:55:19.839Z,99946.67
2019-01-16T04:57:33.124Z,99955.45
2019-01-16T04:59:46.140Z,99949.91
2019-01-16T05:01:51.294Z,99952.19
2019-01-16T05:04:04.576Z,99948.21
2019-01-16T05:06:17.616Z,99952.00
2019-01-16T05:08:30.639Z,99936.97
2019-01-16T05:10:43.759Z,99943.51
2019-01-16T05:12:57.044Z,99943.26
2019-01-16T05:15:10.070Z,99939.53
2019-01-16T05:19:38.811Z,99933.67
2019-01-16T05:21:49.164Z,99939.84
2019-01-16T05:24:02.184Z,99938.28
2019-01-16T05:26:15.243Z,99937.88
2019-01-16T05:28:28.282Z,99954.87
2019-01-16T05:30:41.311Z,99949.95
2019-01-16T05:32:42.295Z,99952.48
2019-01-16T05:34:55.630Z,99955.45
2019-01-16T05:37:08.915Z,99952.61
2019-01-16T05:39:14.399Z,99955.16
2019-01-16T05:41:27.418Z,99958.22
2019-01-16T05:43:28.710Z,99955.01
2019-01-16T05:45:42.020Z,99952.26
2019-01-16T05:47:43.719Z,99953.17
2019-01-16T05:49:57.082Z,99948.47
2019-01-16T05:52:10.151Z,99948.25
2019-01-16T05:54:23.523Z,99951.61
2019-01-16T05:56:31.578Z,99940.20
2019-01-16T05:58:44.796Z,99950.52
2019-01-16T06:00:58.554Z,99942.14
2019-01-16T06:03:05.021Z,99943.94
2019-01-16T06:05:15.791Z,99945.80
2019-01-16T06:07:29.177Z,99943.27
2019-01-16T06:09:32.503Z,99941.53
2019-01-16T06:11:45.661Z,99942.75
2019-01-16T06:13:48.606Z,99939.26
2019-01-16T06:16:01.634Z,99937.49
2019-01-16T06:18:14.679Z,99939.16
2019-01-16T06:20:29.981Z,99931.47
2019-01-16T06:22:30.470Z,99936.63
2019-01-16T06:24:44.518Z,99932.39
2019-01-16T06:26:57.542Z,99925.14
2019-01-16T06:29:10.556Z,99941.27
2019-01-16T06:31:15.917Z,99949.11
2019-01-16T06:33:28.930Z,99951.75
2019-01-16T06:35:41.947Z,99949.02
2019-01-16T06:37:55.063Z,99949.22
2019-01-16T06:40:08.076Z,99960.92
2019-01-16T06:42:21.089Z,99963.20
2019-01-16T06:44:34.143Z,99969.44
2019-01-16T06:46:35.909Z,99964.74
2019-01-16T06:48:49.161Z,99967.93
2019-01-16T06:50:52.002Z,99969.38
2019-01-16T06:53:05.028Z,99973.91
2019-01-16T06:55:18.272Z,99966.30
2019-01-16T06:57:31.801Z,99962.82
2019-01-16T06:59:44.839Z,99964.54
2019-01-16T07:01:52.506Z,99962.36
2019-01-16T07:04:05.536Z,99963.19
2019-01-16T07:06:09.745Z,99957.85
2019-01-16T07:08:22.932Z,99962.26
2019-01-16T07:10:36.210Z,99959.75
2019-01-16T07:12:49.518Z,99965.44
2019-01-16T07:15:02.536Z,99962.53
2019-01-16T07:17:16.067Z,99958.47
2019-01-16T07:19:29.132Z,99957.66
2019-01-16T07:21:42.163Z,99962.86
2019-01-16T07:23:55.409Z,99956.91
2019-01-16T07:26:08.461Z,99958.22
2019-01-16T07:28:21.751Z,99958.52
2019-01-16T07:30:36.439Z,99953.75
2019-01-16T07:32:49.477Z,99947.28
2019-01-16T07:35:02.509Z,99959.58
2019-01-16T07:37:15.777Z,99956.70
2019-01-16T07:39:29.000Z,99956.13
2019-01-16T07:41:36.389Z,99962.74
2019-01-16T07:43:49.705Z,99965.88
2019-01-16T07:46:03.014Z,99950.34
2019-01-16T07:48:16.036Z,99953.44
2019-01-16T07:50:19.047Z,99951.33
2019-01-16T07:52:32.362Z,99955.37
2019-01-16T07:54:45.392Z,99955.55
2019-01-16T07:56:58.735Z,99962.45
2019-01-16T07:59:12.024Z,99957.05
2019-01-16T08:01:25.334Z,99950.24
2019-01-16T08:03:38.355Z,99957.81
2019-01-16T08:05:51.374Z,99958.27
2019-01-16T08:08:04.429Z,99951.54
2019-01-16T08:10:17.450Z,99955.59
2019-01-16T08:12:30.553Z,99958.80
2019-01-16T08:14:43.598Z,99965.20
2019-01-16T08:16:56.878Z,99959.47
2019-01-16T08:19:09.893Z,99975.09
2019-01-16T08:21:22.935Z,99975.63
2019-01-16T08:23:22.953Z,99971.27
2019-01-16T08:25:36.254Z,99982.65
2019-01-16T08:27:49.306Z,99971.02
2019-01-16T08:30:02.324Z,99974.30
2019-01-16T08:32:15.350Z,99977.86
2019-01-16T08:34:18.950Z,99986.19
2019-01-16T08:36:23.097Z,99982.77
2019-01-16T08:38:36.106Z,99977.80
2019-01-16T08:40:49.128Z,99971.16
2019-01-16T08:42:53.559Z,99967.31
2019-01-16T08:44:57.914Z,99975.23
2019-01-16T08:47:01.341Z,99971.89
2019-01-16T08:49:08.412Z,99965.98
2019-01-16T08:51:21.427Z,99958.09
2019-01-16T08:53:35.448Z,99956.89
2019-01-16T08:55:49.481Z,99960.14
2019-01-16T08:58:02.842Z,99967.54
2019-01-16T09:00:16.196Z,99957.38
2019-01-16T09:02:29.386Z,99953.70
2019-01-16T09:04:42.401Z,99945.34
2019-01-16T09:06:55.440Z,99939.04
2019-01-16T09:09:05.177Z,99946.91
2019-01-16T09:11:18.458Z,99943.53
2019-01-16T09:13:31.586Z,99957.69
2019-01-16T09:15:44.649Z,99956.37
2019-01-16T09:17:44.626Z,99947.55
2019-01-16T09:19:57.649Z,99949.77
2019-01-16T09:22:10.928Z,99943.43
2019-01-16T09:24:24.202Z,99949.50
2019-01-16T09:26:37.222Z,99947.19
2019-01-16T09:28:50.332Z,99950.75
2019-01-16T09:30:55.053Z,99936.42
2019-01-16T09:33:08.081Z,99935.23
2019-01-16T09:35:21.385Z,99943.19
2019-01-16T09:37:34.411Z,99939.11
2019-01-16T09:39:47.683Z,99936.22
2019-01-16T09:42:01.102Z,99937.31
2019-01-16T09:44:06.898Z,99937.30
2019-01-16T09:46:20.185Z,99934.09
2019-01-16T09:48:33.226Z,99943.58
2019-01-16T09:50:47.896Z,99949.10
2019-01-16T09:53:01.006Z,99943.63
2019-01-16T09:55:14.043Z,99943.80
2019-01-16T09:57:27.058Z,99949.02
2019-01-16T09:59:40.200Z,99931.64
2019-01-16T10:01:53.323Z,99941.64
2019-01-16T10:04:06.349Z,99947.27
2019-01-16T10:06:19.379Z,99947.39
2019-01-16T10:08:22.869Z,99947.75
2019-01-16T10:10:35.886Z,99952.25
2019-01-16T10:12:39.779Z,99957.33
2019-01-16T10:14:52.882Z,99943.76
2019-01-16T10:16:55.198Z,99950.64
2019-01-16T10:19:08.470Z,99941.52
2019-01-16T10:21:21.759Z,99938.52
2019-01-16T10:23:34.808Z,99934.88
2019-01-16T10:25:48.089Z,99950.80
2019-01-16T10:27:50.769Z,99936.78
2019-01-16T10:30:03.898Z,99943.84
2019-01-16T10:32:08.380Z,99938.22
2019-01-16T10:34:21.530Z,99919.50
2019-01-16T10:36:34.650Z,99923.48
2019-01-16T10:38:47.997Z,99917.08
2019-01-16T10:41:01.326Z,99912.19
2019-01-16T10:43:14.927Z,99912.48
2019-01-16T10:45:21.982Z,99910.75
2019-01-16T10:47:35.293Z,99915.13
2019-01-16T10:49:48.581Z,99906.36
2019-01-16T10:52:01.596Z,99904.41
2019-01-16T10:54:08.858Z,99897.34
2019-01-16T10:56:21.903Z,99899.56
2019-01-16T10:58:35.186Z,99894.17
2019-01-16T11:00:48.232Z,99891.52
2019-01-16T11:02:51.408Z,99892.19
2019-01-16T11:05:04.434Z,99886.63
2019-01-16T11:07:17.728Z,99884.58
2019-01-16T11:09:31.104Z,99884.48
2019-01-16T11:11:44.422Z,99887.77
2019-01-16T11:13:48.588Z,99891.84
2019-01-16T11:16:01.889Z,99877.52
2019-01-16T11:18:14.960Z,99878.87
2019-01-16T11:20:29.524Z,99879.44
2019-01-16T11:22:42.546Z,99878.68
2019-01-16T11:24:55.857Z,99873.17
2019-01-16T11:27:08.875Z,99867.17
2019-01-16T11:29:21.912Z,99859.11
2019-01-16T11:31:35.055Z,99857.66
2019-01-16T11:33:48.354Z,99859.28
2019-01-16T11:36:01.378Z,99855.48
2019-01-16T11:38:14.503Z,99850.64
2019-01-16T11:40:29.151Z,99845.31
2019-01-16T11:42:42.442Z,99846.78
2019-01-16T11:44:45.968Z,99841.80
2019-01-16T11:46:58.991Z,99833.98
2019-01-16T11:49:12.417Z,99824.86
2019-01-16T11:51:26.032Z,99825.33
2019-01-16T11:53:39.325Z,99823.17
2019-01-16T11:55:52.600Z,99829.20
2019-01-16T11:57:56.588Z,99824.94
2019-01-16T12:00:10.196Z,99828.34
2019-01-16T12:02:23.460Z,99823.19
2019-01-16T12:04:36.575Z,99822.73
2019-01-16T12:06:49.608Z,99821.86
2019-01-16T12:08:50.737Z,99823.98
2019-01-16T12:11:03.941Z,99822.65
2019-01-16T12:13:17.221Z,99814.58
2019-01-16T12:15:30.659Z,99810.22
2019-01-16T12:17:43.939Z,99809.22
2019-01-16T12:19:57.296Z,99795.59
2019-01-16T12:22:10.433Z,99794.70
2019-01-16T12:24:14.988Z,99788.14
2019-01-16T12:26:28.274Z,99786.20
2019-01-16T12:28:41.565Z,99786.70
2019-01-16T12:30:54.682Z,99782.44
2019-01-16T12:33:07.709Z,99784.04
2019-01-16T12:35:21.028Z,99785.01
2019-01-16T12:37:34.446Z,99774.56
2019-01-16T12:39:37.126Z,99787.41
2019-01-16T12:41:50.465Z,99774.38
2019-01-16T12:44:03.745Z,99777.72
2019-01-16T12:46:09.854Z,99771.00
2019-01-16T12:48:15.316Z,99772.63
2019-01-16T12:50:29.133Z,99773.09
2019-01-16T12:52:42.183Z,99767.03
2019-01-16T12:54:55.260Z,99768.14
2019-01-16T12:57:08.327Z,99772.05
2019-01-16T12:59:21.609Z,99767.13
2019-01-16T13:01:34.660Z,99763.25
2019-01-16T13:03:47.966Z,99766.52
2019-01-16T13:05:49.881Z,99764.37
2019-01-16T13:08:02.946Z,99765.23
2019-01-16T13:10:15.962Z,99763.11
2019-01-16T13:12:29.322Z,99774.31
2019-01-16T13:14:32.682Z,99759.75
2019-01-16T13:16:46.038Z,99749.62
2019-01-16T13:18:59.632Z,99741.64
2019-01-16T13:21:13.182Z,99738.67
2019-01-16T13:23:26.464Z,99738.89
2019-01-16T13:25:33.853Z,99745.59
2019-01-16T13:27:47.225Z,99743.88
2019-01-16T13:30:00.571Z,99757.13
2019-01-16T13:32:13.946Z,99740.77
2019-01-16T13:34:26.983Z,99749.20
2019-01-16T13:36:32.499Z,99745.00
2019-01-16T13:38:46.041Z,99743.92
2019-01-16T13:40:59.031Z,99741.16
2019-01-16T13:43:12.561Z,99733.29
2019-01-16T13:45:26.414Z,99733.22
2019-01-16T13:47:32.405Z,99727.36
2019-01-16T13:49:45.434Z,99719.27
2019-01-16T13:51:58.454Z,99718.69
2019-01-16T13:54:11.501Z,99714.23
2019-01-16T13:56:18.888Z,99722.06
2019-01-16T13:58:31.950Z,99715.05
2019-01-16T14:00:48.555Z,99708.09
2019-01-16T14:03:00.172Z,99703.34
2019-01-16T14:05:13.193Z,99706.20
2019-01-16T14:07:26.294Z,99700.06
2019-01-16T14:09:39.599Z,99704.41
2019-01-16T14:11:52.649Z,99716.86
2019-01-16T14:14:05.678Z,99705.31
2019-01-16T14:16:18.987Z,99708.43
2019-01-16T14:18:32.333Z,99710.94
2019-01-16T14:20:45.706Z,99707.57
2019-01-16T14:22:58.832Z,99709.44
2019-01-16T14:25:12.159Z,99702.14
2019-01-16T14:27:25.369Z,99701.66
2019-01-16T14:29:38.408Z,99706.91
2019-01-16T14:31:51.499Z,99700.11
2019-01-16T14:34:04.517Z,99700.83
2019-01-16T14:39:50.750Z,99702.72
2019-01-16T14:41:44.599Z,99687.41
2019-01-16T14:43:38.573Z,99688.34
2019-01-16T14:45:42.088Z,99689.91
2019-01-16T14:47:29.711Z,99683.10
2019-01-16T14:49:23.742Z,99687.27
2019-01-16T14:51:20.113Z,99684.84
2019-01-16T14:53:12.800Z,99689.09
2019-01-16T14:55:06.301Z,99686.36
2019-01-16T14:57:05.608Z,99682.97
2019-01-16T14:58:53.960Z,99683.32
2019-01-16T15:00:54.046Z,99678.28
2019-01-16T15:03:06.879Z,99674.75
2019-01-16T15:04:55.247Z,99670.38
2019-01-16T15:06:50.093Z,99675.35
2019-01-16T15:08:46.541Z,99672.30
2019-01-16T15:10:52.278Z,99668.69
2019-01-16T15:13:01.193Z,99671.58
2019-01-16T15:14:54.977Z,99677.15
2019-01-16T15:16:55.205Z,99674.28
2019-01-16T15:18:49.489Z,99667.23
2019-01-16T15:20:40.869Z,99664.73
2019-01-16T15:22:53.508Z,99654.97
2019-01-16T15:24:42.874Z,99663.84
2019-01-16T15:26:24.858Z,99662.61
2019-01-16T15:28:22.000Z,99662.53
2019-01-16T15:30:20.574Z,99664.74
2019-01-16T15:32:30.228Z,99669.62
2019-01-16T15:34:31.265Z,99662.08
2019-01-16T15:36:26.853Z,99664.84
2019-01-16T15:38:13.369Z,99661.05
2019-01-16T15:39:59.876Z,99655.73
2019-01-16T15:41:56.532Z,99652.48
2019-01-16T15:43:44.003Z,99650.00
2019-01-16T15:45:34.622Z,99640.52
2019-01-16T15:47:27.748Z,99640.15
2019-01-16T15:49:24.383Z,99635.13
2019-01-16T15:51:17.414Z,99629.08
2019-01-16T15:53:17.980Z,99630.93
2019-01-16T15:55:09.781Z,99629.70
2019-01-16T15:57:15.663Z,99628.39
2019-01-16T15:59:01.232Z,99626.92
2019-01-16T16:00:51.308Z,99625.44
2019-01-16T16:02:46.816Z,99622.76
2019-01-16T16:04:40.897Z,99618.00
2019-01-16T16:06:44.917Z,99620.76
2019-01-16T16:08:42.592Z,99631.44
2019-01-16T16:10:48.696Z,99627.69
2019-01-16T16:12:42.573Z,99618.13
2019-01-16T16:14:39.822Z,99625.06
2019-01-16T16:16:32.711Z,99618.95
2019-01-16T16:18:44.981Z,99624.97
2019-01-16T16:20:46.161Z,99632.22
2019-01-16T16:22:37.447Z,99629.47
2019-01-16T16:24:25.169Z,99627.31
2019-01-16T16:26:26.121Z,99620.45
2019-01-16T16:28:12.636Z,99610.48
2019-01-16T16:30:05.005Z,99609.79
2019-01-16T16:32:17.371Z,99617.33
2019-01-16T16:34:06.812Z,99609.41
2019-01-16T16:36:04.632Z,99613.44
2019-01-16T16:37:57.177Z,99616.05
2019-01-16T16:39:43.940Z,99605.27
2019-01-16T16:41:36.673Z,99606.39
2019-01-16T16:43:17.475Z,99610.41
2019-01-16T16:45:08.834Z,99608.90
2019-01-16T16:46:58.463Z,99605.46
2019-01-16T16:48:42.604Z,99607.46
2019-01-16T16:50:35.425Z,99603.31
2019-01-16T16:52:28.544Z,99601.80
2019-01-16T16:54:21.273Z,99604.67
2019-01-16T16:56:19.032Z,99600.61
2019-01-16T16:58:07.327Z,99603.76
2019-01-16T17:00:00.927Z,99597.50
2019-01-16T17:01:46.985Z,99594.70
2019-01-16T17:03:41.293Z,99599.01
2019-01-16T17:05:41.108Z,99590.23
2019-01-16T17:07:43.063Z,99596.45
2019-01-16T17:09:35.864Z,99593.18
2019-01-16T17:11:28.964Z,99592.88
2019-01-16T17:13:11.757Z,99590.91
2019-01-16T17:15:04.697Z,99587.05
2019-01-16T17:17:04.959Z,99587.81
2019-01-16T17:18:59.544Z,99591.03
2019-01-16T17:20:59.746Z,99584.83
2019-01-16T17:22:59.870Z,99585.47
2019-01-16T17:25:09.357Z,99582.78
2019-01-16T17:27:02.222Z,99573.71
2019-01-16T17:28:55.087Z,99566.77
2019-01-16T17:30:54.792Z,99579.22
2019-01-16T17:32:40.660Z,99574.92
2019-01-16T17:34:30.969Z,99577.36
2019-01-16T17:36:17.219Z,99581.87
2019-01-16T17:38:09.059Z,99583.27
2019-01-16T17:40:09.934Z,99574.03
2019-01-16T17:42:02.544Z,99578.31
2019-01-16T17:43:56.206Z,99566.42
2019-01-16T17:45:51.471Z,99572.48
2019-01-16T17:47:45.821Z,99561.57
2019-01-16T17:49:31.723Z,99555.40
2019-01-16T17:51:27.902Z,99554.96
2019-01-16T17:53:31.314Z,99551.28
2019-01-16T17:55:25.923Z,99539.99
2019-01-16T17:57:25.840Z,99536.70
2019-01-16T17:59:31.947Z,99534.70
2019-01-16T18:01:20.295Z,99534.84
2019-01-16T18:03:17.779Z,99523.90
2019-01-16T18:05:20.962Z,99520.31
2019-01-16T18:07:08.982Z,99509.69
2019-01-16T18:09:02.049Z,99500.33
2019-01-16T18:10:56.402Z,99498.05
2019-01-16T18:13:02.971Z,99494.73
2019-01-16T18:15:00.222Z,99494.92
2019-01-16T18:16:52.938Z,99503.58
2019-01-16T18:18:46.880Z,99499.41
2019-01-16T18:20:44.931Z,99490.00
2019-01-16T18:22:37.242Z,99493.00
2019-01-16T18:24:40.771Z,99488.44
2019-01-16T18:26:38.299Z,99487.38
2019-01-16T18:28:22.922Z,99479.91
2019-01-16T18:30:16.074Z,99474.13
2019-01-16T18:32:04.046Z,99480.52
2019-01-16T18:33:48.091Z,99478.57
2019-01-16T18:35:30.419Z,99475.11
2019-01-16T18:37:18.717Z,99473.90
2019-01-16T18:39:11.567Z,99473.25
2019-01-16T18:40:58.066Z,99471.91
2019-01-16T18:42:46.511Z,99463.95
2019-01-16T18:44:59.119Z,99456.99
2019-01-16T18:46:53.298Z,99456.52
2019-01-16T18:49:06.210Z,99451.88
2019-01-16T18:51:02.730Z,99465.84
2019-01-16T18:53:09.101Z,99458.78
2019-01-16T18:54:58.358Z,99457.02
2019-01-16T18:56:51.459Z,99445.48
2019-01-16T18:58:45.216Z,99434.12
2019-01-16T19:00:46.112Z,99433.84
2019-01-16T19:02:52.275Z,99433.80
2019-01-16T19:04:46.391Z,99429.28
2019-01-16T19:06:40.455Z,99406.31
2019-01-16T19:08:39.931Z,99397.58
2019-01-16T19:10:31.731Z,99403.39
2019-01-16T19:12:25.922Z,99403.11
2019-01-16T19:14:26.439Z,99403.70
2019-01-16T19:16:21.124Z,99405.61
2019-01-16T19:18:07.641Z,99411.70
2019-01-16T19:19:55.596Z,99410.71
2019-01-16T19:21:39.323Z,99415.31
2019-01-16T19:23:33.584Z,99412.94
2019-01-16T19:25:37.176Z,99408.05
2019-01-16T19:27:40.040Z,99409.47
2019-01-16T19:29:39.973Z,99408.70
2019-01-16T19:31:33.336Z,99408.72
2019-01-16T19:33:21.655Z,99396.89
2019-01-16T19:35:18.436Z,99393.80
2019-01-16T19:37:18.693Z,99394.48
2019-01-16T19:39:11.509Z,99397.94
2019-01-16T19:41:04.374Z,99388.45
2019-01-16T19:43:04.346Z,99394.49
2019-01-16T19:44:53.282Z,99382.62
2019-01-16T19:46:45.402Z,99380.11
2019-01-16T19:48:34.682Z,99376.59
2019-01-16T19:50:25.480Z,99387.21
2019-01-16T19:52:06.931Z,99379.86
2019-01-16T19:54:03.803Z,99400.14
2019-01-16T19:56:04.419Z,99389.00
2019-01-16T19:57:55.299Z,99383.01
2019-01-16T19:59:55.741Z,99386.17
2019-01-16T20:01:56.238Z,99367.98
2019-01-16T20:03:42.853Z,99363.94
2019-01-16T20:05:33.563Z,99360.86
2019-01-16T20:07:25.281Z,99360.56
2019-01-16T20:09:18.227Z,99364.88
2019-01-16T20:11:11.594Z,99377.02
2019-01-16T20:12:57.043Z,99371.19
2019-01-16T20:14:45.581Z,99362.63
2019-01-16T20:16:29.650Z,99366.55
2019-01-16T20:18:19.530Z,99360.36
2019-01-16T20:20:04.786Z,99362.52
2019-01-16T20:22:14.042Z,99367.20
2019-01-16T20:24:02.771Z,99363.59
2019-01-16T20:25:47.610Z,99360.16
2019-01-16T20:27:40.361Z,99350.84
2019-01-16T20:29:33.445Z,99344.38
2019-01-16T20:31:33.420Z,99348.73
2019-01-16T20:33:26.475Z,99353.55
2019-01-16T20:35:19.214Z,99350.19
2019-01-16T20:37:18.917Z,99360.63
2019-01-16T20:39:11.978Z,99350.19
2019-01-16T20:41:04.392Z,99355.59
2019-01-16T20:42:49.824Z,99356.92
2019-01-16T20:44:47.037Z,99345.25
2019-01-16T20:46:39.888Z,99344.05
2019-01-16T20:48:32.139Z,99345.36
2019-01-16T20:50:35.540Z,99330.03
2019-01-16T20:52:21.782Z,99327.41
2019-01-16T20:54:22.535Z,99329.59
2019-01-16T20:56:09.535Z,99327.06
2019-01-16T20:58:12.622Z,99322.19
2019-01-16T21:00:05.266Z,99315.12
2019-01-16T21:01:57.377Z,99322.13
2019-01-16T21:03:50.156Z,99318.41
2019-01-16T21:05:42.877Z,99312.34
2019-01-16T21:07:39.923Z,99305.98
2019-01-16T21:09:30.004Z,99302.63
2019-01-16T21:11:22.963Z,99290.55
2019-01-16T21:13:20.738Z,99295.16
2019-01-16T21:15:10.676Z,99301.56
2019-01-16T21:17:04.034Z,99301.05
2019-01-16T21:18:56.829Z,99290.84
2019-01-16T21:20:45.129Z,99292.87
2019-01-16T21:22:29.495Z,99300.84
2019-01-16T21:24:26.937Z,99300.37
2019-01-16T21:26:11.061Z,99297.38
2019-01-16T21:27:56.840Z,99289.70
2019-01-16T21:29:49.586Z,99289.45
2019-01-16T21:31:35.053Z,99282.14
2019-01-16T21:33:40.210Z,99277.77
2019-01-16T21:35:32.800Z,99275.28
2019-01-16T21:37:36.270Z,99273.74
2019-01-16T21:39:39.161Z,99265.83
2019-01-16T21:41:40.263Z,99274.36
2019-01-16T21:43:36.899Z,99271.91
2019-01-16T21:45:36.950Z,99269.46
2019-01-16T21:47:29.755Z,99269.07
2019-01-16T21:49:42.380Z,99259.97
2019-01-16T21:51:54.751Z,99259.55
2019-01-16T21:53:42.925Z,99255.79
2019-01-16T21:55:23.745Z,99249.17
2019-01-16T21:57:23.560Z,99246.52
2019-01-16T21:59:10.114Z,99248.23
2019-01-16T22:00:58.633Z,99230.22
2019-01-16T22:02:59.661Z,99231.08
2019-01-16T22:04:59.567Z,99231.41
2019-01-16T22:06:41.576Z,99223.13
2019-01-16T22:08:43.505Z,99227.16
2019-01-16T22:10:38.751Z,99230.11
2019-01-16T22:12:31.876Z,99229.38
2019-01-16T22:14:34.334Z,99224.98
2019-01-16T22:16:24.555Z,99219.38
2019-01-16T22:18:24.911Z,99208.11
2019-01-16T22:20:19.334Z,99211.57
2019-01-16T22:22:05.914Z,99212.49
2019-01-16T22:23:59.293Z,99211.14
2019-01-16T22:25:51.863Z,99203.56
2019-01-16T22:27:44.889Z,99204.89
2019-01-16T22:29:41.916Z,99202.84
2019-01-16T22:31:45.033Z,99196.80
2019-01-16T22:33:45.412Z,99194.32
2019-01-16T22:35:38.164Z,99190.37
2019-01-16T22:37:20.991Z,99189.73
2019-01-16T22:39:13.260Z,99189.52
2019-01-16T22:40:57.768Z,99183.89
2019-01-16T22:42:45.166Z,99185.20
2019-01-16T22:44:39.198Z,99180.44
2019-01-16T22:46:39.117Z,99176.97
2019-01-16T22:48:27.498Z,99175.38
2019-01-16T22:50:13.379Z,99178.20
2019-01-16T22:52:06.154Z,99173.02
2019-01-16T22:54:18.542Z,99174.72
2019-01-16T22:56:14.661Z,99170.89
2019-01-16T22:57:59.739Z,99171.41
2019-01-16T22:59:59.647Z,99179.89
2019-01-16T23:01:56.690Z,99173.34
2019-01-16T23:03:55.679Z,99165.14
2019-01-16T23:05:49.481Z,99168.05
2019-01-16T23:07:36.638Z,99173.14
2019-01-16T23:09:42.194Z,99168.89
2019-01-16T23:11:30.128Z,99174.09
2019-01-16T23:13:22.962Z,99159.29
2019-01-16T23:15:09.146Z,99162.94
2019-01-16T23:17:00.060Z,99154.02
2019-01-16T23:18:51.069Z,99154.77
2019-01-16T23:21:00.500Z,99146.13
2019-01-16T23:22:46.972Z,99141.20
2019-01-16T23:24:39.452Z,99129.94
2019-01-16T23:26:25.801Z,99126.64
2019-01-16T23:28:32.051Z,99121.38
2019-01-16T23:30:18.261Z,99116.56
2019-01-16T23:32:23.978Z,99115.11
2019-01-16T23:34:17.860Z,99120.44
2019-01-16T23:36:01.731Z,99119.38
2019-01-16T23:37:50.958Z,99116.73
2019-01-16T23:39:43.729Z,99118.78
2019-01-16T23:41:44.040Z,99110.39
2019-01-16T23:43:32.168Z,99103.40
2019-01-16T23:45:19.912Z,99115.69
2019-01-16T23:47:11.710Z,99109.36
2019-01-16T23:49:04.791Z,99110.97
2019-01-16T23:50:57.295Z,99104.83
2019-01-16T23:52:40.112Z,99095.74
2019-01-16T23:54:40.752Z,99095.15
2019-01-16T23:56:34.028Z,99093.13
2019-01-16T23:58:27.829Z,99090.69
